createdAt,value
2023-04-03T00:02:24.913Z,99147.07
2023-04-03T00:05:02.332Z,99149.84
2023-04-03T00:07:54.328Z,99144.49
2023-04-03T00:10:46.398Z,99145.70
2023-04-03T00:13:38.865Z,99150.71
2023-04-03T00:16:30.856Z,99149.68
2023-04-03T00:19:13.918Z,99152.76
2023-04-03T00:22:05.884Z,99149.48
2023-04-03T00:24:48.875Z,99151.72
2023-04-03T00:27:41.720Z,99149.65
2023-04-03T00:30:18.225Z,99154.52
2023-04-03T00:33:12.809Z,99155.72
2023-04-03T00:36:09.934Z,99148.45
2023-04-03T00:39:02.068Z,99151.41
2023-04-03T00:41:37.206Z,99155.23
2023-04-03T00:45:01.638Z,99154.41
2023-04-03T00:47:53.687Z,99155.50
2023-04-03T00:50:28.181Z,99152.91
2023-04-03T00:53:24.888Z,99153.25
2023-04-03T00:56:20.392Z,99155.54
2023-04-03T00:59:06.171Z,99157.30
2023-04-03T01:02:00.211Z,99156.46
2023-04-03T01:04:52.656Z,99157.69
2023-04-03T01:07:31.243Z,99158.91
2023-04-03T01:10:16.491Z,99167.17
2023-04-03T01:12:52.288Z,99164.05
2023-04-03T01:15:44.278Z,99165.77
2023-04-03T01:18:38.068Z,99167.50
2023-04-03T01:21:38.156Z,99167.36
2023-04-03T01:24:40.010Z,99170.14
2023-04-03T01:27:32.186Z,99168.39
2023-04-03T01:30:31.120Z,99174.59
2023-04-03T01:33:23.618Z,99178.02
2023-04-03T01:36:21.550Z,99178.17
2023-04-03T01:39:14.179Z,99178.17
2023-04-03T01:42:06.589Z,99180.20
2023-04-03T01:44:58.850Z,99183.63
2023-04-03T01:47:33.608Z,99187.04
2023-04-03T01:50:25.671Z,99184.06
2023-04-03T01:53:20.478Z,99187.48
2023-04-03T01:56:12.852Z,99188.29
2023-04-03T01:58:47.690Z,99188.27
2023-04-03T02:01:39.702Z,99189.61
2023-04-03T02:04:14.809Z,99192.16
2023-04-03T02:06:49.561Z,99195.20
2023-04-03T02:09:41.569Z,99196.84
2023-04-03T02:12:33.638Z,99200.92
2023-04-03T02:15:25.733Z,99201.91
2023-04-03T02:18:01.376Z,99198.77
2023-04-03T02:20:35.839Z,99199.09
2023-04-03T02:23:28.322Z,99201.23
2023-04-03T02:26:20.714Z,99199.63
2023-04-03T02:29:12.761Z,99205.29
2023-04-03T02:32:04.963Z,99202.66
2023-04-03T02:34:57.005Z,99207.61
2023-04-03T02:37:48.972Z,99210.29
2023-04-03T02:40:29.703Z,99211.29
2023-04-03T02:43:21.671Z,99209.35
2023-04-03T02:46:15.977Z,99211.08
2023-04-03T02:49:12.726Z,99210.73
2023-04-03T02:52:04.781Z,99206.35
2023-04-03T02:54:56.756Z,99208.70
2023-04-03T02:57:48.888Z,99210.08
2023-04-03T03:00:37.505Z,99212.72
2023-04-03T03:03:29.789Z,99213.45
2023-04-03T03:06:21.918Z,99215.35
2023-04-03T03:09:14.109Z,99213.43
2023-04-03T03:12:06.547Z,99218.08
2023-04-03T03:14:58.435Z,99214.73
2023-04-03T03:17:33.072Z,99213.89
2023-04-03T03:20:16.502Z,99215.39
2023-04-03T03:23:08.856Z,99218.02
2023-04-03T03:26:02.253Z,99221.22
2023-04-03T03:28:54.286Z,99225.66
2023-04-03T03:31:46.432Z,99225.96
2023-04-03T03:34:21.823Z,99227.65
2023-04-03T03:37:14.163Z,99236.39
2023-04-03T03:40:06.751Z,99234.79
2023-04-03T03:42:58.671Z,99242.16
2023-04-03T03:45:40.427Z,99238.98
2023-04-03T03:48:32.422Z,99246.55
2023-04-03T03:51:24.356Z,99248.25
2023-04-03T03:54:16.733Z,99245.41
2023-04-03T03:57:08.745Z,99244.40
2023-04-03T04:00:00.814Z,99245.71
2023-04-03T04:02:35.961Z,99250.70
2023-04-03T04:05:28.369Z,99254.09
2023-04-03T04:08:20.368Z,99248.66
2023-04-03T04:11:12.746Z,99247.74
2023-04-03T04:14:04.777Z,99248.39
2023-04-03T04:16:56.893Z,99248.54
2023-04-03T04:19:48.882Z,99252.45
2023-04-03T04:22:40.898Z,99256.14
2023-04-03T04:25:33.741Z,99257.96
2023-04-03T04:28:25.754Z,99259.67
2023-04-03T04:31:17.839Z,99262.89
2023-04-03T04:33:54.850Z,99264.54
2023-04-03T04:36:36.136Z,99266.05
2023-04-03T04:39:28.309Z,99271.00
2023-04-03T04:42:20.360Z,99276.15
2023-04-03T04:44:55.160Z,99277.69
2023-04-03T04:47:36.013Z,99277.18
2023-04-03T04:50:28.189Z,99285.45
2023-04-03T04:53:20.203Z,99288.37
2023-04-03T04:56:12.466Z,99295.20
2023-04-03T04:59:04.498Z,99294.68
2023-04-03T05:01:56.559Z,99304.17
2023-04-03T05:04:51.200Z,99303.96
2023-04-03T05:07:43.362Z,99303.92
2023-04-03T05:10:20.382Z,99310.67
2023-04-03T05:13:12.372Z,99311.96
2023-04-03T05:16:04.540Z,99315.83
2023-04-03T05:18:39.577Z,99319.34
2023-04-03T05:21:33.409Z,99320.95
2023-04-03T05:24:25.777Z,99324.42
2023-04-03T05:27:05.613Z,99331.71
2023-04-03T05:29:45.386Z,99330.53
2023-04-03T05:32:23.117Z,99333.63
2023-04-03T05:34:58.849Z,99334.17
2023-04-03T05:37:37.604Z,99339.21
2023-04-03T05:40:29.873Z,99338.48
2023-04-03T05:43:01.714Z,99341.02
2023-04-03T05:45:54.339Z,99341.63
2023-04-03T05:48:37.969Z,99341.30
2023-04-03T05:51:21.681Z,99342.40
2023-04-03T05:54:19.600Z,99343.59
2023-04-03T05:57:01.534Z,99342.20
2023-04-03T05:59:33.465Z,99342.92
2023-04-03T06:02:26.811Z,99345.52
2023-04-03T06:05:19.277Z,99346.45
2023-04-03T06:08:11.523Z,99346.83
2023-04-03T06:11:04.185Z,99349.80
2023-04-03T06:13:39.257Z,99353.19
2023-04-03T06:16:31.577Z,99355.73
2023-04-03T06:19:14.557Z,99361.58
2023-04-03T06:21:49.369Z,99363.79
2023-04-03T06:24:41.638Z,99367.60
2023-04-03T06:27:33.825Z,99373.48
2023-04-03T06:30:26.462Z,99371.73
2023-04-03T06:33:01.790Z,99368.90
2023-04-03T06:35:59.668Z,99372.89
2023-04-03T06:38:40.801Z,99375.96
2023-04-03T06:41:33.595Z,99376.89
2023-04-03T06:44:17.099Z,99377.39
2023-04-03T06:46:58.017Z,99378.27
2023-04-03T06:49:50.054Z,99382.81
2023-04-03T06:52:42.195Z,99392.48
2023-04-03T06:55:34.176Z,99394.43
2023-04-03T06:58:23.307Z,99394.27
2023-04-03T07:01:17.561Z,99399.28
2023-04-03T07:04:10.102Z,99397.21
2023-04-03T07:06:53.506Z,99402.70
2023-04-03T07:09:45.810Z,99405.22
2023-04-03T07:12:38.564Z,99411.48
2023-04-03T07:15:30.815Z,99418.73
2023-04-03T07:18:23.375Z,99421.45
2023-04-03T07:20:55.581Z,99428.34
2023-04-03T07:26:46.157Z,99428.20
2023-04-03T07:29:38.469Z,99431.61
2023-04-03T07:32:30.612Z,99434.61
2023-04-03T07:35:23.315Z,99431.16
2023-04-03T07:38:06.164Z,99431.25
2023-04-03T07:40:58.189Z,99429.51
2023-04-03T07:43:50.754Z,99431.52
2023-04-03T07:46:43.390Z,99434.20
2023-04-03T07:49:39.009Z,99436.50
2023-04-03T07:52:31.096Z,99439.61
2023-04-03T07:55:23.367Z,99438.63
2023-04-03T07:57:57.612Z,99441.90
2023-04-03T08:00:49.871Z,99442.47
2023-04-03T08:03:42.028Z,99439.91
2023-04-03T08:06:44.829Z,99433.08
2023-04-03T08:09:38.245Z,99436.70
2023-04-03T08:12:19.338Z,99435.05
2023-04-03T08:15:10.699Z,99434.73
2023-04-03T08:18:03.186Z,99437.88
2023-04-03T08:20:55.669Z,99435.17
2023-04-03T08:23:37.696Z,99440.11
2023-04-03T08:26:14.630Z,99440.85
2023-04-03T08:28:50.043Z,99437.80
2023-04-03T08:31:42.031Z,99440.48
2023-04-03T08:34:14.104Z,99445.39
2023-04-03T08:37:06.578Z,99448.46
2023-04-03T08:39:58.774Z,99449.02
2023-04-03T08:42:43.988Z,99446.50
2023-04-03T08:45:47.955Z,99449.31
2023-04-03T08:48:35.489Z,99452.21
2023-04-03T08:51:29.952Z,99453.91
2023-04-03T08:54:30.615Z,99454.17
2023-04-03T08:57:30.554Z,99455.02
2023-04-03T09:00:25.371Z,99457.35
2023-04-03T09:03:00.667Z,99456.89
2023-04-03T09:05:56.489Z,99457.48
2023-04-03T09:08:34.636Z,99456.13
2023-04-03T09:11:30.035Z,99461.38
2023-04-03T09:14:28.254Z,99455.54
2023-04-03T09:17:33.400Z,99453.57
2023-04-03T09:20:20.996Z,99461.14
2023-04-03T09:23:25.217Z,99457.27
2023-04-03T09:26:23.438Z,99458.05
2023-04-03T09:29:19.913Z,99464.83
2023-04-03T09:32:27.472Z,99462.20
2023-04-03T09:35:39.969Z,99464.25
2023-04-03T09:38:36.759Z,99463.69
2023-04-03T09:41:29.358Z,99473.45
2023-04-03T09:44:26.705Z,99472.22
2023-04-03T09:47:26.586Z,99470.52
2023-04-03T09:50:24.164Z,99463.13
2023-04-03T09:53:31.044Z,99471.09
2023-04-03T09:56:28.262Z,99466.94
2023-04-03T09:59:21.025Z,99466.83
2023-04-03T10:02:05.240Z,99470.69
2023-04-03T10:04:43.454Z,99474.12
2023-04-03T10:07:37.989Z,99471.23
2023-04-03T10:10:26.538Z,99473.52
2023-04-03T10:13:22.075Z,99474.34
2023-04-03T10:16:01.203Z,99471.54
2023-04-03T10:18:45.491Z,99467.95
2023-04-03T10:21:36.550Z,99466.26
2023-04-03T10:24:37.751Z,99461.11
2023-04-03T10:27:41.456Z,99456.05
2023-04-03T10:30:49.484Z,99455.59
2023-04-03T10:33:53.836Z,99450.44
2023-04-03T10:36:51.213Z,99450.94
2023-04-03T10:39:35.888Z,99454.51
2023-04-03T10:42:18.069Z,99450.54
2023-04-03T10:45:23.375Z,99450.73
2023-04-03T10:48:24.197Z,99449.30
2023-04-03T10:51:14.339Z,99442.84
2023-04-03T10:54:13.891Z,99438.73
2023-04-03T10:57:13.044Z,99434.64
2023-04-03T11:00:15.833Z,99432.73
2023-04-03T11:03:13.816Z,99434.41
2023-04-03T11:06:10.886Z,99421.02
2023-04-03T11:08:57.970Z,99423.67
2023-04-03T11:11:51.726Z,99419.98
2023-04-03T11:14:44.378Z,99415.45
2023-04-03T11:17:44.348Z,99418.19
2023-04-03T11:20:38.825Z,99422.79
2023-04-03T11:23:21.148Z,99419.42
2023-04-03T11:26:10.874Z,99412.54
2023-04-03T11:29:06.910Z,99412.35
2023-04-03T11:32:14.665Z,99412.35
2023-04-03T11:35:01.149Z,99411.57
2023-04-03T11:37:54.835Z,99403.41
2023-04-03T11:40:48.993Z,99409.23
2023-04-03T11:43:58.531Z,99407.89
2023-04-03T11:46:57.521Z,99397.39
2023-04-03T11:49:48.654Z,99403.75
2023-04-03T11:53:01.501Z,99404.86
2023-04-03T11:56:03.360Z,99401.66
2023-04-03T11:59:24.782Z,99399.97
2023-04-03T12:02:54.322Z,99401.00
2023-04-03T12:05:47.758Z,99404.98
2023-04-03T12:08:31.460Z,99403.02
2023-04-03T12:11:31.598Z,99399.84
2023-04-03T12:14:27.142Z,99406.33
2023-04-03T12:17:26.324Z,99411.48
2023-04-03T12:20:55.028Z,99414.05
2023-04-03T12:24:05.266Z,99415.06
2023-04-03T12:27:11.871Z,99417.66
2023-04-03T12:30:18.189Z,99423.07
2023-04-03T12:33:14.497Z,99420.42
2023-04-03T12:36:11.515Z,99414.75
2023-04-03T12:39:23.414Z,99412.53
2023-04-03T12:42:39.672Z,99405.67
2023-04-03T12:45:41.785Z,99405.85
2023-04-03T12:48:39.608Z,99401.77
2023-04-03T12:51:37.087Z,99405.52
2023-04-03T12:54:34.667Z,99400.48
2023-04-03T12:57:22.868Z,99396.84
2023-04-03T13:00:33.597Z,99392.48
2023-04-03T13:03:28.889Z,99389.30
2023-04-03T13:06:04.652Z,99381.00
2023-04-03T13:08:39.113Z,99380.10
2023-04-03T13:11:24.144Z,99378.16
2023-04-03T13:14:06.131Z,99383.23
2023-04-03T13:17:00.452Z,99382.54
2023-04-03T13:19:53.478Z,99386.36
2023-04-03T13:22:54.138Z,99390.42
2023-04-03T13:25:37.587Z,99386.42
2023-04-03T13:28:17.659Z,99385.23
2023-04-03T13:31:06.041Z,99391.00
2023-04-03T13:34:04.089Z,99394.16
2023-04-03T13:37:02.223Z,99400.30
2023-04-03T13:40:11.694Z,99399.29
2023-04-03T13:43:07.665Z,99411.02
2023-04-03T13:46:06.133Z,99409.80
2023-04-03T13:48:59.362Z,99412.25
2023-04-03T13:52:04.414Z,99410.83
2023-04-03T13:54:53.894Z,99401.92
2023-04-03T13:57:37.246Z,99410.63
2023-04-03T14:00:38.377Z,99413.75
2023-04-03T14:03:33.491Z,99413.17
2023-04-03T14:06:17.593Z,99409.84
2023-04-03T14:09:09.897Z,99400.55
2023-04-03T14:11:53.894Z,99403.73
2023-04-03T14:14:47.478Z,99406.83
2023-04-03T14:17:32.067Z,99410.27
2023-04-03T14:20:24.057Z,99413.88
2023-04-03T14:23:16.336Z,99411.71
2023-04-03T14:25:59.234Z,99406.44
2023-04-03T14:28:53.180Z,99403.29
2023-04-03T14:31:47.313Z,99398.61
2023-04-03T14:34:19.931Z,99403.00
2023-04-03T14:37:01.913Z,99411.66
2023-04-03T14:40:04.772Z,99410.49
2023-04-03T14:42:48.216Z,99407.08
2023-04-03T14:45:40.432Z,99409.77
2023-04-03T14:48:33.222Z,99414.77
2023-04-03T14:51:25.851Z,99414.52
2023-04-03T14:54:14.704Z,99422.67
2023-04-03T14:57:11.201Z,99422.41
2023-04-03T15:00:05.118Z,99419.79
2023-04-03T15:02:57.377Z,99425.82
2023-04-03T15:05:51.338Z,99426.81
2023-04-03T15:08:31.029Z,99420.80
2023-04-03T15:11:23.107Z,99427.42
2023-04-03T15:14:19.681Z,99424.89
2023-04-03T15:17:24.900Z,99422.60
2023-04-03T15:20:20.351Z,99422.88
2023-04-03T15:23:13.695Z,99419.52
2023-04-03T15:26:06.583Z,99419.65
2023-04-03T15:28:45.938Z,99418.10
2023-04-03T15:31:38.064Z,99418.63
2023-04-03T15:34:30.353Z,99421.38
2023-04-03T15:37:02.353Z,99421.18
2023-04-03T15:39:34.431Z,99416.80
2023-04-03T15:42:06.910Z,99417.06
2023-04-03T15:44:42.474Z,99419.80
2023-04-03T15:47:14.544Z,99428.45
2023-04-03T15:50:08.848Z,99426.98
2023-04-03T15:52:41.942Z,99426.44
2023-04-03T15:55:36.450Z,99427.83
2023-04-03T15:58:13.685Z,99423.29
2023-04-03T16:01:06.094Z,99423.29
2023-04-03T16:03:46.414Z,99426.08
2023-04-03T16:06:40.166Z,99428.47
2023-04-03T16:09:32.447Z,99427.52
2023-04-03T16:12:13.755Z,99424.16
2023-04-03T16:14:46.080Z,99427.56
2023-04-03T16:17:21.174Z,99428.36
2023-04-03T16:20:15.056Z,99436.95
2023-04-03T16:23:07.334Z,99436.52
2023-04-03T16:25:47.129Z,99440.23
2023-04-03T16:28:39.682Z,99439.14
2023-04-03T16:31:33.751Z,99438.56
2023-04-03T16:34:26.596Z,99441.11
2023-04-03T16:37:18.700Z,99446.25
2023-04-03T16:40:00.308Z,99442.38
2023-04-03T16:42:52.329Z,99443.46
2023-04-03T16:45:44.729Z,99445.68
2023-04-03T16:48:37.578Z,99448.43
2023-04-03T16:51:30.814Z,99448.46
2023-04-03T16:54:23.187Z,99445.09
2023-04-03T16:57:15.611Z,99449.45
2023-04-03T17:00:09.857Z,99449.55
2023-04-03T17:03:02.094Z,99449.48
2023-04-03T17:05:54.227Z,99448.41
2023-04-03T17:08:29.282Z,99449.58
2023-04-03T17:11:12.892Z,99453.88
2023-04-03T17:13:47.565Z,99453.36
2023-04-03T17:16:40.858Z,99458.55
2023-04-03T17:19:33.607Z,99458.64
2023-04-03T17:22:26.426Z,99464.96
2023-04-03T17:25:19.349Z,99467.33
2023-04-03T17:28:11.463Z,99470.98
2023-04-03T17:30:43.576Z,99476.75
2023-04-03T17:33:24.599Z,99475.76
2023-04-03T17:36:01.474Z,99480.36
2023-04-03T17:38:54.409Z,99481.81
2023-04-03T17:41:46.857Z,99485.33
2023-04-03T17:44:38.922Z,99486.27
2023-04-03T17:47:31.321Z,99485.19
2023-04-03T17:50:23.340Z,99487.95
2023-04-03T17:52:58.919Z,99484.62
2023-04-03T17:55:33.501Z,99484.40
2023-04-03T17:58:26.052Z,99487.81
2023-04-03T18:01:21.171Z,99489.84
2023-04-03T18:03:57.180Z,99492.58
2023-04-03T18:06:42.452Z,99491.86
2023-04-03T18:09:37.842Z,99494.79
2023-04-03T18:12:30.148Z,99496.70
2023-04-03T18:15:14.323Z,99497.23
2023-04-03T18:18:07.040Z,99496.17
2023-04-03T18:20:59.439Z,99493.20
2023-04-03T18:23:53.899Z,99498.20
2023-04-03T18:26:51.305Z,99507.67
2023-04-03T18:29:46.277Z,99512.15
2023-04-03T18:32:38.556Z,99512.64
2023-04-03T18:35:14.864Z,99513.77
2023-04-03T18:37:54.905Z,99515.15
2023-04-03T18:40:27.702Z,99519.33
2023-04-03T18:43:20.354Z,99520.52
2023-04-03T18:46:12.708Z,99519.46
2023-04-03T18:49:05.783Z,99515.98
2023-04-03T18:51:58.360Z,99518.23
2023-04-03T18:54:50.696Z,99517.83
2023-04-03T18:57:43.134Z,99513.80
2023-04-03T19:00:35.994Z,99515.47
2023-04-03T19:03:14.276Z,99515.42
2023-04-03T19:06:03.019Z,99513.47
2023-04-03T19:08:55.998Z,99512.23
2023-04-03T19:11:48.491Z,99513.80
2023-04-03T19:14:20.533Z,99512.59
2023-04-03T19:16:55.188Z,99512.79
2023-04-03T19:19:36.617Z,99512.27
2023-04-03T19:22:11.053Z,99510.34
2023-04-03T19:25:04.024Z,99508.75
2023-04-03T19:27:56.147Z,99508.55
2023-04-03T19:30:32.002Z,99505.92
2023-04-03T19:33:13.434Z,99504.80
2023-04-03T19:35:55.577Z,99501.27
2023-04-03T19:38:27.665Z,99507.57
2023-04-03T19:41:04.581Z,99508.50
2023-04-03T19:43:39.549Z,99509.35
2023-04-03T19:46:36.213Z,99508.15
2023-04-03T19:49:12.010Z,99508.86
2023-04-03T19:52:04.859Z,99506.70
2023-04-03T19:54:45.925Z,99506.56
2023-04-03T19:57:38.357Z,99503.96
2023-04-03T20:00:20.962Z,99507.42
2023-04-03T20:02:56.263Z,99506.55
2023-04-03T20:05:30.898Z,99505.16
2023-04-03T20:08:23.719Z,99505.80
2023-04-03T20:10:58.219Z,99505.22
2023-04-03T20:13:33.802Z,99504.27
2023-04-03T20:16:26.315Z,99502.00
2023-04-03T20:19:01.498Z,99499.02
2023-04-03T20:21:55.062Z,99495.36
2023-04-03T20:24:38.728Z,99493.08
2023-04-03T20:27:31.915Z,99492.47
2023-04-03T20:30:15.564Z,99493.47
2023-04-03T20:32:48.571Z,99498.13
2023-04-03T20:35:40.840Z,99501.05
2023-04-03T20:38:24.542Z,99499.27
2023-04-03T20:41:05.828Z,99498.49
2023-04-03T20:44:00.305Z,99498.25
2023-04-03T20:46:53.864Z,99498.38
2023-04-03T20:49:46.360Z,99506.30
2023-04-03T20:52:38.359Z,99508.00
2023-04-03T20:55:30.647Z,99506.77
2023-04-03T20:58:25.015Z,99508.83
2023-04-03T21:01:19.304Z,99506.77
2023-04-03T21:04:15.783Z,99509.02
2023-04-03T21:07:31.651Z,99512.10
2023-04-03T21:10:59.136Z,99515.88
2023-04-03T21:14:29.346Z,99516.45
2023-04-03T21:17:03.896Z,99518.67
2023-04-03T21:19:55.875Z,99520.38
2023-04-03T21:22:49.779Z,99515.78
2023-04-03T21:25:41.808Z,99516.78
2023-04-03T21:28:18.393Z,99520.00
2023-04-03T21:31:11.530Z,99525.10
2023-04-03T21:34:03.544Z,99525.35
2023-04-03T21:36:57.083Z,99529.48
2023-04-03T21:39:49.011Z,99530.14
2023-04-03T21:42:41.034Z,99531.42
2023-04-03T21:45:33.631Z,99526.52
2023-04-03T21:48:17.216Z,99524.59
2023-04-03T21:51:10.969Z,99525.23
2023-04-03T21:53:48.400Z,99524.66
2023-04-03T21:56:24.237Z,99522.34
2023-04-03T21:59:05.294Z,99522.98
2023-04-03T22:01:57.576Z,99519.16
2023-04-03T22:04:49.864Z,99517.00
2023-04-03T22:07:24.932Z,99518.50
2023-04-03T22:09:56.866Z,99514.41
2023-04-03T22:12:32.368Z,99512.78
2023-04-03T22:15:08.870Z,99513.08
2023-04-03T22:17:44.680Z,99510.94
2023-04-03T22:20:19.676Z,99512.54
2023-04-03T22:23:07.655Z,99504.48
2023-04-03T22:25:42.367Z,99505.76
2023-04-03T22:28:14.998Z,99504.55
2023-04-03T22:31:08.245Z,99500.29
2023-04-03T22:33:57.958Z,99500.70
2023-04-03T22:36:50.007Z,99497.00
2023-04-03T22:39:24.406Z,99497.93
2023-04-03T22:42:16.383Z,99499.05
2023-04-03T22:44:58.252Z,99500.38
2023-04-03T22:47:50.273Z,99496.30
2023-04-03T22:50:31.773Z,99489.82
2023-04-03T22:53:23.987Z,99485.27
2023-04-03T22:56:16.022Z,99484.71
2023-04-03T22:59:08.340Z,99483.98
2023-04-03T23:01:43.293Z,99482.21
2023-04-03T23:04:26.678Z,99484.05
2023-04-03T23:07:05.830Z,99470.35
2023-04-03T23:09:40.159Z,99466.13
2023-04-03T23:12:32.161Z,99460.98
2023-04-03T23:15:24.246Z,99461.95
2023-04-03T23:18:16.369Z,99457.39
2023-04-03T23:20:51.865Z,99454.91
2023-04-03T23:23:27.127Z,99451.88
2023-04-03T23:26:00.426Z,99447.62
2023-04-03T23:28:35.133Z,99440.29
2023-04-03T23:31:10.389Z,99443.13
2023-04-03T23:33:45.602Z,99440.78
2023-04-03T23:36:17.628Z,99437.02
2023-04-03T23:38:56.722Z,99439.15
2023-04-03T23:41:49.430Z,99434.11
2023-04-03T23:44:41.648Z,99431.12
2023-04-03T23:47:33.961Z,99429.02
2023-04-03T23:50:10.577Z,99423.68
2023-04-03T23:52:47.881Z,99421.67
2023-04-03T23:55:28.760Z,99419.14
2023-04-03T23:58:20.859Z,99414.34
